createdAt,value
2023-10-22T00:00:48.497Z,0.10
2023-10-22T00:01:48.448Z,0.20
2023-10-22T00:02:48.548Z,0.20
2023-10-22T00:03:48.560Z,0.20
2023-10-22T00:04:48.434Z,0.10
2023-10-22T00:05:48.488Z,0.10
2023-10-22T00:06:48.382Z,0.20
2023-10-22T00:07:48.376Z,0.20
2023-10-22T00:08:48.436Z,0.30
2023-10-22T00:09:48.338Z,0.20
2023-10-22T00:10:48.336Z,0.40
2023-10-22T00:11:48.390Z,0.30
2023-10-22T00:12:48.346Z,0.20
2023-10-22T00:13:48.289Z,0.10
2023-10-22T00:14:48.348Z,0.20
2023-10-22T00:15:48.321Z,0.20
2023-10-22T00:16:48.283Z,0.10
2023-10-22T00:17:48.368Z,0.20
2023-10-22T00:18:48.359Z,0.10
2023-10-22T00:19:48.240Z,0.30
2023-10-22T00:20:48.281Z,0.20
2023-10-22T00:21:48.209Z,0.20
2023-10-22T00:22:48.197Z,0.10
2023-10-22T00:23:48.214Z,0.10
2023-10-22T00:24:48.156Z,0.20
2023-10-22T00:25:48.159Z,0.40
2023-10-22T00:26:48.149Z,0.10
2023-10-22T00:27:48.149Z,0.10
2023-10-22T00:28:48.123Z,0.10
2023-10-22T00:29:48.198Z,0.10
2023-10-22T00:30:48.097Z,0.20
2023-10-22T00:31:48.067Z,0.10
2023-10-22T00:32:48.223Z,0.20
2023-10-22T00:33:48.156Z,0.20
2023-10-22T00:34:48.046Z,0.20
2023-10-22T00:35:48.087Z,0.10
2023-10-22T00:36:48.022Z,0.10
2023-10-22T00:37:47.998Z,0.10
2023-10-22T00:38:48.014Z,0.20
2023-10-22T00:39:47.979Z,0.10
2023-10-22T00:40:47.962Z,0.10
2023-10-22T00:41:47.997Z,0.10
2023-10-22T00:42:47.937Z,0.20
2023-10-22T00:43:47.937Z,0.10
2023-10-22T00:44:47.942Z,0.20
2023-10-22T00:45:47.949Z,0.10
2023-10-22T00:46:47.940Z,0.20
2023-10-22T00:47:47.908Z,0.20
2023-10-22T00:48:47.896Z,0.20
2023-10-22T00:49:48.180Z,0.20
2023-10-22T00:50:47.878Z,0.20
2023-10-22T00:51:47.841Z,0.00
2023-10-22T00:52:47.814Z,0.10
2023-10-22T00:53:47.868Z,0.20
2023-10-22T00:54:47.797Z,0.10
2023-10-22T00:55:47.777Z,0.10
2023-10-22T00:56:47.816Z,0.10
2023-10-22T00:57:47.749Z,0.10
2023-10-22T00:58:47.746Z,0.20
2023-10-22T00:59:47.746Z,0.00
2023-10-22T01:00:47.783Z,0.10
2023-10-22T01:01:47.723Z,0.20
2023-10-22T01:02:47.805Z,0.50
2023-10-22T01:03:47.754Z,0.10
2023-10-22T01:04:47.688Z,0.10
2023-10-22T01:05:47.676Z,0.10
2023-10-22T01:06:47.646Z,0.10
2023-10-22T01:07:47.662Z,0.10
2023-10-22T01:08:47.706Z,0.30
2023-10-22T01:09:47.673Z,0.10
2023-10-22T01:10:47.624Z,0.20
2023-10-22T01:11:47.666Z,0.10
2023-10-22T01:12:47.593Z,0.00
2023-10-22T01:13:47.563Z,0.10
2023-10-22T01:14:47.593Z,0.10
2023-10-22T01:15:47.561Z,0.10
2023-10-22T01:16:47.551Z,0.10
2023-10-22T01:17:47.603Z,0.10
2023-10-22T01:18:47.571Z,0.20
2023-10-22T01:19:47.510Z,0.30
2023-10-22T01:20:47.510Z,0.10
2023-10-22T01:21:47.462Z,0.10
2023-10-22T01:22:47.453Z,0.20
2023-10-22T01:23:47.469Z,0.30
2023-10-22T01:24:47.464Z,0.20
2023-10-22T01:25:47.416Z,0.10
2023-10-22T01:26:47.443Z,0.10
2023-10-22T01:27:47.412Z,0.10
2023-10-22T01:28:47.376Z,0.10
2023-10-22T01:29:47.394Z,0.10
2023-10-22T01:30:47.348Z,0.20
2023-10-22T01:31:47.342Z,0.20
2023-10-22T01:32:47.495Z,0.10
2023-10-22T01:33:47.390Z,0.20
2023-10-22T01:34:47.324Z,0.30
2023-10-22T01:35:47.300Z,0.20
2023-10-22T01:36:47.288Z,0.30
2023-10-22T01:37:47.280Z,0.00
2023-10-22T01:38:47.296Z,0.20
2023-10-22T01:39:47.293Z,0.20
2023-10-22T01:40:47.230Z,0.30
2023-10-22T01:41:47.234Z,0.30
2023-10-22T01:42:47.214Z,0.10
2023-10-22T01:43:47.197Z,0.20
2023-10-22T01:44:47.200Z,0.20
2023-10-22T01:45:47.181Z,0.30
2023-10-22T01:46:47.202Z,0.30
2023-10-22T01:47:47.255Z,0.20
2023-10-22T01:48:47.206Z,0.10
2023-10-22T01:49:47.128Z,0.20
2023-10-22T01:50:47.196Z,0.20
2023-10-22T01:51:47.084Z,0.10
2023-10-22T01:52:47.100Z,0.20
2023-10-22T01:53:47.113Z,0.20
2023-10-22T01:54:47.054Z,0.20
2023-10-22T01:55:47.047Z,0.10
2023-10-22T01:56:47.087Z,0.20
2023-10-22T01:57:47.011Z,0.20
2023-10-22T01:58:47.011Z,0.40
2023-10-22T01:59:47.011Z,0.20
2023-10-22T02:00:47.004Z,0.20
2023-10-22T02:01:46.985Z,0.20
2023-10-22T02:02:47.081Z,0.10
2023-10-22T02:03:47.180Z,0.20
2023-10-22T02:04:46.949Z,0.20
2023-10-22T02:05:46.960Z,0.30
2023-10-22T02:06:46.903Z,0.10
2023-10-22T02:07:46.888Z,0.20
2023-10-22T02:08:46.931Z,0.10
2023-10-22T02:09:46.861Z,0.20
2023-10-22T02:10:46.846Z,0.20
2023-10-22T02:11:46.879Z,0.20
2023-10-22T02:12:46.905Z,0.10
2023-10-22T02:13:46.821Z,0.10
2023-10-22T02:14:46.859Z,0.10
2023-10-22T02:15:46.789Z,0.10
2023-10-22T02:16:46.891Z,0.10
2023-10-22T02:17:46.828Z,0.20
2023-10-22T02:18:46.791Z,0.20
2023-10-22T02:19:46.756Z,0.00
2023-10-22T02:20:46.767Z,0.10
2023-10-22T02:21:46.733Z,0.20
2023-10-22T02:22:46.724Z,0.10
2023-10-22T02:23:46.700Z,0.10
2023-10-22T02:24:46.687Z,0.20
2023-10-22T02:25:46.673Z,0.10
2023-10-22T02:26:46.689Z,0.10
2023-10-22T02:27:46.652Z,0.10
2023-10-22T02:28:46.642Z,0.10
2023-10-22T02:29:46.650Z,0.10
2023-10-22T02:30:46.637Z,0.10
2023-10-22T02:31:46.590Z,0.10
2023-10-22T02:32:46.631Z,0.10
2023-10-22T02:33:46.611Z,0.10
2023-10-22T02:34:46.551Z,0.10
2023-10-22T02:35:46.607Z,0.10
2023-10-22T02:36:46.529Z,0.10
2023-10-22T02:37:46.524Z,0.10
2023-10-22T02:38:46.548Z,0.10
2023-10-22T02:39:46.495Z,0.20
2023-10-22T02:40:46.503Z,0.20
2023-10-22T02:41:46.524Z,0.10
2023-10-22T02:42:46.458Z,0.20
2023-10-22T02:43:46.438Z,0.00
2023-10-22T02:44:46.490Z,0.10
2023-10-22T02:45:46.415Z,0.10
2023-10-22T02:46:46.447Z,0.10
2023-10-22T02:47:46.436Z,0.10
2023-10-22T02:48:46.457Z,0.20
2023-10-22T02:49:46.383Z,0.10
2023-10-22T02:50:46.418Z,0.20
2023-10-22T02:51:46.353Z,0.10
2023-10-22T02:52:46.354Z,0.20
2023-10-22T02:53:46.375Z,0.10
2023-10-22T02:54:46.329Z,0.10
2023-10-22T02:55:46.304Z,0.10
2023-10-22T02:56:46.372Z,0.20
2023-10-22T02:57:46.278Z,0.10
2023-10-22T02:58:46.281Z,0.10
2023-10-22T02:59:46.282Z,0.20
2023-10-22T03:00:46.401Z,0.10
2023-10-22T03:01:46.224Z,0.10
2023-10-22T03:02:46.323Z,0.20
2023-10-22T03:03:46.383Z,0.10
2023-10-22T03:04:46.223Z,0.10
2023-10-22T03:05:46.201Z,0.10
2023-10-22T03:06:46.161Z,0.10
2023-10-22T03:07:46.152Z,0.20
2023-10-22T03:08:46.188Z,0.20
2023-10-22T03:09:46.154Z,0.20
2023-10-22T03:10:46.114Z,0.20
2023-10-22T03:11:46.180Z,0.10
2023-10-22T03:12:46.094Z,0.10
2023-10-22T03:13:46.079Z,0.10
2023-10-22T03:14:46.125Z,0.10
2023-10-22T03:15:46.068Z,0.10
2023-10-22T03:16:46.070Z,0.10
2023-10-22T03:17:46.139Z,0.20
2023-10-22T03:18:46.048Z,0.20
2023-10-22T03:19:46.020Z,0.10
2023-10-22T03:20:46.008Z,0.10
2023-10-22T03:21:45.991Z,0.30
2023-10-22T03:22:46.003Z,0.20
2023-10-22T03:23:45.987Z,0.10
2023-10-22T03:24:45.976Z,0.10
2023-10-22T03:25:45.980Z,0.20
2023-10-22T03:26:46.043Z,0.10
2023-10-22T03:27:45.920Z,0.10
2023-10-22T03:28:45.932Z,0.10
2023-10-22T03:29:45.932Z,0.10
2023-10-22T03:30:45.910Z,0.10
2023-10-22T03:31:45.865Z,0.20
2023-10-22T03:32:45.887Z,0.10
2023-10-22T03:33:45.890Z,0.10
2023-10-22T03:34:45.828Z,0.20
2023-10-22T03:35:45.987Z,0.10
2023-10-22T03:36:45.805Z,0.10
2023-10-22T03:37:45.796Z,0.10
2023-10-22T03:38:45.807Z,0.10
2023-10-22T03:39:45.780Z,0.10
2023-10-22T03:40:45.760Z,0.20
2023-10-22T03:41:45.815Z,0.20
2023-10-22T03:42:45.734Z,0.10
2023-10-22T03:43:45.720Z,0.10
2023-10-22T03:44:45.748Z,0.10
2023-10-22T03:45:45.700Z,0.10
2023-10-22T03:46:45.683Z,0.20
2023-10-22T03:47:45.741Z,0.10
2023-10-22T03:48:45.821Z,0.10
2023-10-22T03:49:45.668Z,0.10
2023-10-22T03:50:45.672Z,0.20
2023-10-22T03:51:45.625Z,0.10
2023-10-22T03:52:45.606Z,0.20
2023-10-22T03:53:45.669Z,0.10
2023-10-22T03:54:45.624Z,0.10
2023-10-22T03:55:45.568Z,0.20
2023-10-22T03:56:45.572Z,0.40
2023-10-22T03:57:45.545Z,0.20
2023-10-22T03:58:45.527Z,0.20
2023-10-22T03:59:45.566Z,0.20
2023-10-22T04:00:45.537Z,0.20
2023-10-22T04:01:45.508Z,0.10
2023-10-22T04:02:45.525Z,0.20
2023-10-22T04:03:45.573Z,0.30
2023-10-22T04:04:45.464Z,0.20
2023-10-22T04:05:45.481Z,0.20
2023-10-22T04:06:45.434Z,0.30
2023-10-22T04:07:45.407Z,0.10
2023-10-22T04:08:45.457Z,0.10
2023-10-22T04:09:48.084Z,0.20
2023-10-22T04:10:53.405Z,0.30
2023-10-22T04:11:45.414Z,0.10
2023-10-22T04:12:45.347Z,0.30
2023-10-22T04:13:45.345Z,0.20
2023-10-22T04:14:45.338Z,0.10
2023-10-22T04:15:45.323Z,0.30
2023-10-22T04:16:45.355Z,0.30
2023-10-22T04:17:45.338Z,0.40
2023-10-22T04:18:45.345Z,0.30
2023-10-22T04:19:45.264Z,0.20
2023-10-22T04:20:45.270Z,0.30
2023-10-22T04:21:45.255Z,0.20
2023-10-22T04:22:45.285Z,0.20
2023-10-22T04:23:45.235Z,0.40
2023-10-22T04:24:45.211Z,0.30
2023-10-22T04:25:45.215Z,0.30
2023-10-22T04:26:45.188Z,0.20
2023-10-22T04:27:45.159Z,0.40
2023-10-22T04:28:45.156Z,0.30
2023-10-22T04:29:45.145Z,0.30
2023-10-22T04:30:45.172Z,0.20
2023-10-22T04:31:45.120Z,0.30
2023-10-22T04:32:45.133Z,0.20
2023-10-22T04:33:45.172Z,0.40
2023-10-22T04:34:45.070Z,0.40
2023-10-22T04:35:45.158Z,0.40
2023-10-22T04:36:45.100Z,0.40
2023-10-22T04:37:45.040Z,0.50
2023-10-22T04:38:45.074Z,0.50
2023-10-22T04:39:45.008Z,0.40
2023-10-22T04:40:44.999Z,0.60
2023-10-22T04:41:45.018Z,0.60
2023-10-22T04:42:44.969Z,0.30
2023-10-22T04:43:45.548Z,0.30
2023-10-22T04:44:44.985Z,0.30
2023-10-22T04:45:44.927Z,0.30
2023-10-22T04:46:44.926Z,0.50
2023-10-22T04:47:45.007Z,0.70
2023-10-22T04:48:45.007Z,0.40
2023-10-22T04:49:44.887Z,0.30
2023-10-22T04:50:44.885Z,0.30
2023-10-22T04:51:44.859Z,0.10
2023-10-22T04:52:44.849Z,0.40
2023-10-22T04:53:44.826Z,0.50
2023-10-22T04:54:44.824Z,0.10
2023-10-22T04:55:44.798Z,0.20
2023-10-22T04:56:44.812Z,0.10
2023-10-22T04:57:44.789Z,0.10
2023-10-22T04:58:44.776Z,0.20
2023-10-22T04:59:44.780Z,0.20
2023-10-22T05:00:44.744Z,0.10
2023-10-22T05:01:44.814Z,0.10
2023-10-22T05:02:44.792Z,0.10
2023-10-22T05:03:44.835Z,0.30
2023-10-22T05:04:44.732Z,0.10
2023-10-22T05:05:44.701Z,0.10
2023-10-22T05:06:44.729Z,0.10
2023-10-22T05:07:44.664Z,0.10
2023-10-22T05:08:44.719Z,0.10
2023-10-22T05:09:44.657Z,0.20
2023-10-22T05:10:44.621Z,0.10
2023-10-22T05:11:44.626Z,0.30
2023-10-22T05:12:44.616Z,0.10
2023-10-22T05:13:44.589Z,0.10
2023-10-22T05:14:44.569Z,0.20
2023-10-22T05:15:44.588Z,0.10
2023-10-22T05:16:44.589Z,0.10
2023-10-22T05:17:44.601Z,0.20
2023-10-22T05:18:44.588Z,0.20
2023-10-22T05:19:44.541Z,0.20
2023-10-22T05:20:44.552Z,0.20
2023-10-22T05:21:44.518Z,0.30
2023-10-22T05:22:44.514Z,0.10
2023-10-22T05:23:44.542Z,0.10
2023-10-22T05:24:44.508Z,0.10
2023-10-22T05:25:44.461Z,0.10
2023-10-22T05:26:44.515Z,0.20
2023-10-22T05:27:44.449Z,0.10
2023-10-22T05:28:44.418Z,0.10
2023-10-22T05:29:44.479Z,0.10
2023-10-22T05:30:44.407Z,0.10
2023-10-22T05:31:44.458Z,0.10
2023-10-22T05:32:44.509Z,0.10
2023-10-22T05:33:44.483Z,0.10
2023-10-22T05:34:44.373Z,0.20
2023-10-22T05:35:44.363Z,0.30
2023-10-22T05:36:44.362Z,0.10
2023-10-22T05:37:44.322Z,0.10
2023-10-22T05:38:44.328Z,0.10
2023-10-22T05:39:44.294Z,0.10
2023-10-22T05:40:44.257Z,0.10
2023-10-22T05:41:44.326Z,0.10
2023-10-22T05:42:44.296Z,0.10
2023-10-22T05:43:44.225Z,0.10
2023-10-22T05:44:44.235Z,0.20
2023-10-22T05:45:44.316Z,0.10
2023-10-22T05:46:44.264Z,0.10
2023-10-22T05:47:44.400Z,0.20
2023-10-22T05:48:44.385Z,0.30
2023-10-22T05:49:44.172Z,0.10
2023-10-22T05:50:44.198Z,0.10
2023-10-22T05:51:44.242Z,0.20
2023-10-22T05:52:44.105Z,0.10
2023-10-22T05:53:44.157Z,0.20
2023-10-22T05:54:44.084Z,0.40
2023-10-22T05:55:44.068Z,0.20
2023-10-22T05:56:44.092Z,0.10
2023-10-22T05:57:44.052Z,0.20
2023-10-22T05:58:44.106Z,0.20
2023-10-22T05:59:44.045Z,0.20
2023-10-22T06:00:44.041Z,0.30
2023-10-22T06:01:44.041Z,0.30
2023-10-22T06:02:44.038Z,0.10
2023-10-22T06:03:46.589Z,0.10
2023-10-22T06:04:44.026Z,0.20
2023-10-22T06:05:43.978Z,0.20
2023-10-22T06:06:43.959Z,0.20
2023-10-22T06:07:43.921Z,0.00
2023-10-22T06:08:43.989Z,0.20
2023-10-22T06:09:43.893Z,0.20
2023-10-22T06:10:43.969Z,0.20
2023-10-22T06:11:43.916Z,0.10
2023-10-22T06:12:43.858Z,0.20
2023-10-22T06:13:43.872Z,0.20
2023-10-22T06:14:43.853Z,0.20
2023-10-22T06:15:43.837Z,0.10
2023-10-22T06:16:43.805Z,0.20
2023-10-22T06:17:43.881Z,0.30
2023-10-22T06:18:43.846Z,0.30
2023-10-22T06:19:43.766Z,0.20
2023-10-22T06:20:43.776Z,0.70
2023-10-22T06:21:43.749Z,0.20
2023-10-22T06:22:43.741Z,0.40
2023-10-22T06:23:43.843Z,0.20
2023-10-22T06:24:43.710Z,0.30
2023-10-22T06:25:43.701Z,0.20
2023-10-22T06:26:43.720Z,0.20
2023-10-22T06:27:43.743Z,0.40
2023-10-22T06:28:43.681Z,0.40
2023-10-22T06:29:43.681Z,0.30
2023-10-22T06:30:43.650Z,0.50
2023-10-22T06:31:43.694Z,0.30
2023-10-22T06:32:43.722Z,0.40
2023-10-22T06:33:43.875Z,0.20
2023-10-22T06:34:43.645Z,0.20
2023-10-22T06:35:43.586Z,0.20
2023-10-22T06:36:45.470Z,0.30
2023-10-22T06:37:43.597Z,0.30
2023-10-22T06:38:43.622Z,0.30
2023-10-22T06:39:43.507Z,0.30
2023-10-22T06:40:43.568Z,0.40
2023-10-22T06:41:43.533Z,0.30
2023-10-22T06:42:43.484Z,0.30
2023-10-22T06:43:43.478Z,0.40
2023-10-22T06:44:43.496Z,0.40
2023-10-22T06:45:43.479Z,0.30
2023-10-22T06:46:43.448Z,0.30
2023-10-22T06:47:43.487Z,0.20
2023-10-22T06:48:43.450Z,0.20
2023-10-22T06:49:43.420Z,0.30
2023-10-22T06:50:43.411Z,0.20
2023-10-22T06:51:43.362Z,0.30
2023-10-22T06:52:43.400Z,0.20
2023-10-22T06:53:43.388Z,0.50
2023-10-22T06:54:43.327Z,0.10
2023-10-22T06:55:43.314Z,0.10
2023-10-22T06:56:43.351Z,0.20
2023-10-22T06:57:45.968Z,0.20
2023-10-22T06:58:43.292Z,0.20
2023-10-22T06:59:43.287Z,0.20
2023-10-22T07:00:43.246Z,0.30
2023-10-22T07:01:43.280Z,0.10
2023-10-22T07:02:43.322Z,0.40
2023-10-22T07:03:43.333Z,0.20
2023-10-22T07:04:43.210Z,0.30
2023-10-22T07:05:43.216Z,0.30
2023-10-22T07:06:43.159Z,0.30
2023-10-22T07:07:43.262Z,0.20
2023-10-22T07:08:43.167Z,0.20
2023-10-22T07:09:43.140Z,0.10
2023-10-22T07:10:43.139Z,0.20
2023-10-22T07:11:43.136Z,0.20
2023-10-22T07:12:43.127Z,0.30
2023-10-22T07:13:43.122Z,0.40
2023-10-22T07:14:43.118Z,0.40
2023-10-22T07:15:45.044Z,1.30
2023-10-22T07:16:43.053Z,0.50
2023-10-22T07:17:43.125Z,0.20
2023-10-22T07:18:43.122Z,0.80
2023-10-22T07:19:43.069Z,0.40
2023-10-22T07:20:43.047Z,0.70
2023-10-22T07:21:42.973Z,0.60
2023-10-22T07:22:42.957Z,0.50
2023-10-22T07:23:43.148Z,0.40
2023-10-22T07:24:42.964Z,0.40
2023-10-22T07:25:43.016Z,0.40
2023-10-22T07:26:43.001Z,0.40
2023-10-22T07:27:42.906Z,0.40
2023-10-22T07:28:42.996Z,0.20
2023-10-22T07:29:42.881Z,0.20
2023-10-22T07:30:42.883Z,0.30
2023-10-22T07:31:42.886Z,0.60
2023-10-22T07:32:42.879Z,0.50
2023-10-22T07:33:42.876Z,0.70
2023-10-22T07:34:42.828Z,0.60
2023-10-22T07:35:42.805Z,0.40
2023-10-22T07:36:42.802Z,0.70
2023-10-22T07:37:42.795Z,0.50
2023-10-22T07:38:42.764Z,0.50
2023-10-22T07:39:42.801Z,0.50
2023-10-22T07:40:42.752Z,0.60
2023-10-22T07:41:42.751Z,0.50
2023-10-22T07:42:42.776Z,0.50
2023-10-22T07:43:42.717Z,0.40
2023-10-22T07:44:42.684Z,0.50
2023-10-22T07:45:42.755Z,0.50
2023-10-22T07:46:42.684Z,0.50
2023-10-22T07:47:42.667Z,0.80
2023-10-22T07:48:42.685Z,0.80
2023-10-22T07:49:42.658Z,1.00
2023-10-22T07:50:42.624Z,1.10
2023-10-22T07:51:42.646Z,2.20
2023-10-22T07:52:42.589Z,1.70
2023-10-22T07:53:42.611Z,0.80
2023-10-22T07:54:42.590Z,1.60
2023-10-22T07:55:42.575Z,1.00
2023-10-22T07:56:42.556Z,0.70
2023-10-22T07:57:42.539Z,0.70
2023-10-22T07:58:42.507Z,0.80
2023-10-22T07:59:42.521Z,0.50
2023-10-22T08:00:42.494Z,0.30
2023-10-22T08:01:42.500Z,0.40
2023-10-22T08:02:42.508Z,0.20
2023-10-22T08:03:42.502Z,0.30
2023-10-22T08:04:42.522Z,0.40
2023-10-22T08:05:42.454Z,0.50
2023-10-22T08:06:42.415Z,0.40
2023-10-22T08:07:42.429Z,0.40
2023-10-22T08:08:42.465Z,0.70
2023-10-22T08:09:42.424Z,0.30
2023-10-22T08:10:42.371Z,0.30
2023-10-22T08:11:42.474Z,0.40
2023-10-22T08:12:42.431Z,0.40
2023-10-22T08:13:42.360Z,0.40
2023-10-22T08:14:42.347Z,0.50
2023-10-22T08:15:42.354Z,0.40
2023-10-22T08:16:42.332Z,0.40
2023-10-22T08:17:42.329Z,0.30
2023-10-22T08:18:42.415Z,0.50
2023-10-22T08:19:42.268Z,0.30
2023-10-22T08:20:42.234Z,0.30
2023-10-22T08:21:42.263Z,0.40
2023-10-22T08:22:42.209Z,0.20
2023-10-22T08:23:42.205Z,0.40
2023-10-22T08:24:42.212Z,0.40
2023-10-22T08:25:42.216Z,0.40
2023-10-22T08:26:42.221Z,0.60
2023-10-22T08:27:42.152Z,0.30
2023-10-22T08:28:42.148Z,0.60
2023-10-22T08:29:42.140Z,0.50
2023-10-22T08:30:42.112Z,0.40
2023-10-22T08:31:42.126Z,0.50
2023-10-22T08:32:42.162Z,0.60
2023-10-22T08:33:42.137Z,0.50
2023-10-22T08:34:42.054Z,0.40
2023-10-22T08:35:42.067Z,0.50
2023-10-22T08:36:43.286Z,0.30
2023-10-22T08:37:42.028Z,0.40
2023-10-22T08:38:42.030Z,0.30
2023-10-22T08:39:42.025Z,0.40
2023-10-22T08:40:41.971Z,0.50
2023-10-22T08:41:41.967Z,0.40
2023-10-22T08:42:41.972Z,0.30
2023-10-22T08:43:41.971Z,0.50
2023-10-22T08:44:41.941Z,0.40
2023-10-22T08:45:41.971Z,0.50
2023-10-22T08:46:41.915Z,0.40
2023-10-22T08:47:41.934Z,0.60
2023-10-22T08:48:41.927Z,0.60
2023-10-22T08:49:41.940Z,0.40
2023-10-22T08:50:41.834Z,0.50
2023-10-22T08:51:41.821Z,0.40
2023-10-22T08:52:41.817Z,0.60
2023-10-22T08:53:41.798Z,0.40
2023-10-22T08:54:41.802Z,0.40
2023-10-22T08:55:41.779Z,0.40
2023-10-22T08:56:41.762Z,0.40
2023-10-22T08:57:41.762Z,0.60
2023-10-22T08:58:41.728Z,0.30
2023-10-22T08:59:41.730Z,0.40
2023-10-22T09:00:41.689Z,0.50
2023-10-22T09:01:41.696Z,0.40
2023-10-22T09:02:41.747Z,0.40
2023-10-22T09:03:41.787Z,0.30
2023-10-22T09:04:42.106Z,0.40
2023-10-22T09:05:43.237Z,0.40
2023-10-22T09:06:41.616Z,0.70
2023-10-22T09:07:41.611Z,0.30
2023-10-22T09:08:41.614Z,0.50
2023-10-22T09:09:41.597Z,0.30
2023-10-22T09:10:41.573Z,0.30
2023-10-22T09:11:41.543Z,0.50
2023-10-22T09:12:41.635Z,0.30
2023-10-22T09:13:41.527Z,0.40
2023-10-22T09:14:41.514Z,0.30
2023-10-22T09:15:41.528Z,0.40
2023-10-22T09:16:41.510Z,0.20
2023-10-22T09:17:41.516Z,0.30
2023-10-22T09:18:41.509Z,0.40
2023-10-22T09:19:41.438Z,0.40
2023-10-22T09:20:41.484Z,0.60
2023-10-22T09:21:41.475Z,0.40
2023-10-22T09:22:41.419Z,0.30
2023-10-22T09:23:43.863Z,0.30
2023-10-22T09:24:41.389Z,0.30
2023-10-22T09:25:41.382Z,0.30
2023-10-22T09:26:41.360Z,0.50
2023-10-22T09:27:41.338Z,0.40
2023-10-22T09:28:41.345Z,0.50
2023-10-22T09:29:41.331Z,0.40
2023-10-22T09:30:41.331Z,0.40
2023-10-22T09:31:41.312Z,0.30
2023-10-22T09:32:41.290Z,0.40
2023-10-22T09:33:41.397Z,0.30
2023-10-22T09:34:41.280Z,0.40
2023-10-22T09:35:41.287Z,0.50
2023-10-22T09:36:41.212Z,0.40
2023-10-22T09:37:41.211Z,0.30
2023-10-22T09:38:41.221Z,0.30
2023-10-22T09:39:41.210Z,0.50
2023-10-22T09:40:41.190Z,0.40
2023-10-22T09:41:41.171Z,0.60
2023-10-22T09:42:41.160Z,0.40
2023-10-22T09:43:41.134Z,0.30
2023-10-22T09:44:41.127Z,0.40
2023-10-22T09:45:41.116Z,0.40
2023-10-22T09:46:43.642Z,0.40
2023-10-22T09:47:41.217Z,0.30
2023-10-22T09:48:42.197Z,0.50
2023-10-22T09:49:41.603Z,0.40
2023-10-22T09:50:41.226Z,0.40
2023-10-22T09:51:41.074Z,0.30
2023-10-22T09:52:43.961Z,0.30
2023-10-22T09:53:41.024Z,0.30
2023-10-22T09:54:42.366Z,0.60
2023-10-22T09:55:44.017Z,0.50
2023-10-22T09:56:41.126Z,0.50
2023-10-22T09:57:40.985Z,0.50
2023-10-22T09:58:42.601Z,0.60
2023-10-22T09:59:41.027Z,0.70
2023-10-22T10:00:50.327Z,0.50
2023-10-22T10:01:41.173Z,0.30
2023-10-22T10:02:40.982Z,0.40
2023-10-22T10:03:40.924Z,0.50
2023-10-22T10:04:40.886Z,0.60
2023-10-22T10:05:40.868Z,0.30
2023-10-22T10:06:40.863Z,0.40
2023-10-22T10:07:40.956Z,0.40
2023-10-22T10:08:40.830Z,0.50
2023-10-22T10:09:40.819Z,0.50
2023-10-22T10:10:41.346Z,0.50
2023-10-22T10:11:40.791Z,0.30
2023-10-22T10:12:40.782Z,0.50
2023-10-22T10:13:40.736Z,0.40
2023-10-22T10:14:40.767Z,0.50
2023-10-22T10:15:40.709Z,0.60
2023-10-22T10:16:41.107Z,0.40
2023-10-22T10:17:40.716Z,0.30
2023-10-22T10:18:40.701Z,0.40
2023-10-22T10:19:40.726Z,0.40
2023-10-22T10:20:40.646Z,0.30
2023-10-22T10:21:40.822Z,0.40
2023-10-22T10:22:41.466Z,0.50
2023-10-22T10:23:40.624Z,0.30
2023-10-22T10:24:40.699Z,0.30
2023-10-22T10:25:40.984Z,0.20
2023-10-22T10:26:40.594Z,0.30
2023-10-22T10:27:40.569Z,0.30
2023-10-22T10:28:41.050Z,0.20
2023-10-22T10:29:40.552Z,0.40
2023-10-22T10:30:40.771Z,0.30
2023-10-22T10:31:40.506Z,0.40
2023-10-22T10:32:40.540Z,0.20
2023-10-22T10:33:40.572Z,0.30
2023-10-22T10:34:40.797Z,0.30
2023-10-22T10:35:40.465Z,0.40
2023-10-22T10:36:40.591Z,0.30
2023-10-22T10:37:40.446Z,0.40
2023-10-22T10:38:40.416Z,0.30
2023-10-22T10:39:40.394Z,0.40
2023-10-22T10:40:40.410Z,0.30
2023-10-22T10:41:40.417Z,0.30
2023-10-22T10:42:40.370Z,0.50
2023-10-22T10:43:40.359Z,0.20
2023-10-22T10:44:40.354Z,0.30
2023-10-22T10:45:40.333Z,0.40
2023-10-22T10:46:40.338Z,0.40
2023-10-22T10:47:40.387Z,0.50
2023-10-22T10:48:41.128Z,0.60
2023-10-22T10:49:40.270Z,0.50
2023-10-22T10:50:40.277Z,0.70
2023-10-22T10:51:40.248Z,0.40
2023-10-22T10:52:40.252Z,0.30
2023-10-22T10:53:45.144Z,0.30
2023-10-22T10:54:40.263Z,0.30
2023-10-22T10:55:41.476Z,0.40
2023-10-22T10:56:40.189Z,0.60
2023-10-22T10:57:40.160Z,0.40
2023-10-22T10:58:40.151Z,0.20
2023-10-22T10:59:40.274Z,0.30
2023-10-22T11:00:47.704Z,0.40
2023-10-22T11:01:40.169Z,0.50
2023-10-22T11:02:40.131Z,0.60
2023-10-22T11:03:40.114Z,0.40
2023-10-22T11:04:40.171Z,0.30
2023-10-22T11:05:40.070Z,0.40
2023-10-22T11:06:40.063Z,0.30
2023-10-22T11:07:40.039Z,0.50
2023-10-22T11:08:40.048Z,0.40
2023-10-22T11:09:40.035Z,0.50
2023-10-22T11:10:40.055Z,0.40
2023-10-22T11:11:40.007Z,0.60
2023-10-22T11:12:39.980Z,0.50
2023-10-22T11:13:40.011Z,0.40
2023-10-22T11:14:40.123Z,0.30
2023-10-22T11:15:39.988Z,0.20
2023-10-22T11:16:40.008Z,0.30
2023-10-22T11:17:39.988Z,0.50
2023-10-22T11:18:39.945Z,0.40
2023-10-22T11:19:40.112Z,0.50
2023-10-22T11:20:41.883Z,0.50
2023-10-22T11:21:39.882Z,0.50
2023-10-22T11:22:39.888Z,0.40
2023-10-22T11:23:39.882Z,0.50
2023-10-22T11:24:39.830Z,0.30
2023-10-22T11:25:39.828Z,0.50
2023-10-22T11:26:40.931Z,0.50
2023-10-22T11:27:39.852Z,0.30
2023-10-22T11:28:39.800Z,0.40
2023-10-22T11:29:39.791Z,2.40
2023-10-22T11:30:39.826Z,0.60
2023-10-22T11:31:39.734Z,0.50
2023-10-22T11:32:39.805Z,0.60
2023-10-22T11:33:39.755Z,0.60
2023-10-22T11:34:39.706Z,0.60
2023-10-22T11:35:39.686Z,0.30
2023-10-22T11:36:39.723Z,0.40
2023-10-22T11:37:39.748Z,0.50
2023-10-22T11:38:39.641Z,0.70
2023-10-22T11:39:42.452Z,0.40
2023-10-22T11:40:39.631Z,0.60
2023-10-22T11:41:39.596Z,0.40
2023-10-22T11:42:39.596Z,0.40
2023-10-22T11:43:39.614Z,0.20
2023-10-22T11:44:39.712Z,0.80
2023-10-22T11:45:39.552Z,0.40
2023-10-22T11:46:39.595Z,0.40
2023-10-22T11:47:39.547Z,0.40
2023-10-22T11:48:39.582Z,0.50
2023-10-22T11:49:39.530Z,0.60
2023-10-22T11:50:39.471Z,0.70
2023-10-22T11:51:39.489Z,0.50
2023-10-22T11:52:39.470Z,0.60
2023-10-22T11:53:39.429Z,0.30
2023-10-22T11:54:39.730Z,0.50
2023-10-22T11:55:39.399Z,0.30
2023-10-22T11:56:39.392Z,0.30
2023-10-22T11:57:39.579Z,0.60
2023-10-22T11:58:39.376Z,0.40
2023-10-22T11:59:39.337Z,0.50
2023-10-22T12:00:39.335Z,0.40
2023-10-22T12:01:39.347Z,0.60
2023-10-22T12:02:39.329Z,0.50
2023-10-22T12:03:39.421Z,0.60
2023-10-22T12:04:39.541Z,0.50
2023-10-22T12:05:39.268Z,0.30
2023-10-22T12:06:39.286Z,0.60
2023-10-22T12:07:39.249Z,0.40
2023-10-22T12:08:39.249Z,0.40
2023-10-22T12:09:39.214Z,0.50
2023-10-22T12:10:39.222Z,0.60
2023-10-22T12:11:39.180Z,0.30
2023-10-22T12:12:39.178Z,0.50
2023-10-22T12:13:39.174Z,0.40
2023-10-22T12:14:39.212Z,0.40
2023-10-22T12:15:39.114Z,0.50
2023-10-22T12:16:39.177Z,0.30
2023-10-22T12:17:39.176Z,0.30
2023-10-22T12:18:39.138Z,0.30
2023-10-22T12:19:39.091Z,0.30
2023-10-22T12:20:39.073Z,0.40
2023-10-22T12:21:39.024Z,0.20
2023-10-22T12:22:39.036Z,0.40
2023-10-22T12:23:49.152Z,0.40
2023-10-22T12:24:39.090Z,0.40
2023-10-22T12:25:39.003Z,0.50
2023-10-22T12:26:38.975Z,0.40
2023-10-22T12:27:39.103Z,0.30
2023-10-22T12:28:38.961Z,0.50
2023-10-22T12:29:38.931Z,0.30
2023-10-22T12:30:38.982Z,0.40
2023-10-22T12:31:38.905Z,0.50
2023-10-22T12:32:39.047Z,0.40
2023-10-22T12:33:38.922Z,0.30
2023-10-22T12:34:39.186Z,0.30
2023-10-22T12:35:38.860Z,0.60
2023-10-22T12:36:38.849Z,0.50
2023-10-22T12:37:38.825Z,0.30
2023-10-22T12:38:38.817Z,0.30
2023-10-22T12:39:38.984Z,0.70
2023-10-22T12:40:38.856Z,0.50
2023-10-22T12:41:38.766Z,0.60
2023-10-22T12:42:38.782Z,0.70
2023-10-22T12:43:38.738Z,0.60
2023-10-22T12:44:38.987Z,0.60
2023-10-22T12:45:38.837Z,0.30
2023-10-22T12:46:38.814Z,0.30
2023-10-22T12:47:38.730Z,0.40
2023-10-22T12:48:38.714Z,0.40
2023-10-22T12:49:38.774Z,0.30
2023-10-22T12:50:38.660Z,0.40
2023-10-22T12:51:38.651Z,0.60
2023-10-22T12:52:38.660Z,0.50
2023-10-22T12:53:38.611Z,0.70
2023-10-22T12:54:40.979Z,0.40
2023-10-22T12:55:38.603Z,0.50
2023-10-22T12:56:38.599Z,0.60
2023-10-22T12:57:38.627Z,0.30
2023-10-22T12:58:38.535Z,0.50
2023-10-22T12:59:38.513Z,0.40
2023-10-22T13:00:38.515Z,0.70
2023-10-22T13:01:38.499Z,0.30
2023-10-22T13:02:38.578Z,0.30
2023-10-22T13:03:38.544Z,0.30
2023-10-22T13:04:38.720Z,0.30
2023-10-22T13:05:38.408Z,0.40
2023-10-22T13:06:38.582Z,0.20
2023-10-22T13:07:38.425Z,0.40
2023-10-22T13:08:38.377Z,0.20
2023-10-22T13:09:38.360Z,0.30
2023-10-22T13:10:38.379Z,0.20
2023-10-22T13:11:38.328Z,0.50
2023-10-22T13:12:38.387Z,0.40
2023-10-22T13:13:38.318Z,0.40
2023-10-22T13:14:38.512Z,0.20
2023-10-22T13:15:38.343Z,0.30
2023-10-22T13:16:38.327Z,0.20
2023-10-22T13:17:38.246Z,0.20
2023-10-22T13:18:38.254Z,0.30